createdAt,value
2022-11-05T00:01:02.125Z,19.6
2022-11-05T00:02:04.557Z,19.6
2022-11-05T00:03:07.464Z,19.7
2022-11-05T00:04:11.420Z,19.6
2022-11-05T00:05:14.329Z,19.6
2022-11-05T00:06:16.800Z,19.7
2022-11-05T00:07:19.273Z,19.7
2022-11-05T00:08:21.474Z,19.7
2022-11-05T00:09:23.953Z,19.5
2022-11-05T00:10:25.854Z,19.6
2022-11-05T00:11:28.038Z,19.6
2022-11-05T00:12:30.238Z,19.6
2022-11-05T00:13:32.438Z,19.6
2022-11-05T00:14:34.625Z,19.6
2022-11-05T00:15:37.121Z,19.5
2022-11-05T00:16:39.309Z,19.5
2022-11-05T00:17:41.782Z,19.6
2022-11-05T00:18:43.994Z,19.7
2022-11-05T00:19:45.916Z,19.7
2022-11-05T00:20:48.157Z,19.8
2022-11-05T00:21:50.627Z,19.5
2022-11-05T00:22:52.525Z,19.6
2022-11-05T00:23:54.737Z,19.8
2022-11-05T00:24:56.932Z,19.8
2022-11-05T00:25:59.401Z,19.5
2022-11-05T00:27:01.325Z,19.8
2022-11-05T00:28:03.544Z,19.6
2022-11-05T00:29:05.742Z,19.8
2022-11-05T00:30:07.955Z,19.7
2022-11-05T00:31:10.149Z,19.6
2022-11-05T00:32:12.623Z,19.7
2022-11-05T00:33:15.099Z,19.8
2022-11-05T00:34:17.586Z,20
2022-11-05T00:35:19.786Z,19.9
2022-11-05T00:36:22.412Z,19.7
2022-11-05T00:37:24.631Z,19.6
2022-11-05T00:38:27.103Z,19.8
2022-11-05T00:39:29.573Z,19.9
2022-11-05T00:40:32.047Z,19.9
2022-11-05T00:41:34.532Z,19.8
2022-11-05T00:42:36.712Z,19.7
2022-11-05T00:43:38.900Z,19.7
2022-11-05T00:44:40.809Z,19.6
2022-11-05T00:45:43.281Z,19.9
2022-11-05T00:46:45.452Z,19.6
2022-11-05T00:47:47.946Z,19.8
2022-11-05T00:48:50.428Z,19.7
2022-11-05T00:49:52.920Z,20.1
2022-11-05T00:50:55.547Z,20
2022-11-05T00:51:58.379Z,19.8
2022-11-05T00:53:00.622Z,19.9
2022-11-05T00:54:03.121Z,19.8
2022-11-05T00:55:05.593Z,20.2
2022-11-05T00:56:07.797Z,19.8
2022-11-05T00:57:10.006Z,19.8
2022-11-05T00:58:12.471Z,19.9
2022-11-05T00:59:14.941Z,19.7
2022-11-05T01:00:17.418Z,19.7
2022-11-05T01:01:20.162Z,20.2
2022-11-05T01:02:23.176Z,19.9
2022-11-05T01:03:26.011Z,19.8
2022-11-05T01:04:28.219Z,20
2022-11-05T01:05:30.457Z,19.9
2022-11-05T01:06:32.415Z,19.8
2022-11-05T01:07:34.985Z,19.9
2022-11-05T01:08:37.461Z,20
2022-11-05T01:09:39.377Z,20
2022-11-05T01:10:41.866Z,20
2022-11-05T01:11:43.497Z,20.2
2022-11-05T01:12:45.986Z,19.9
2022-11-05T01:13:47.917Z,20.2
2022-11-05T01:14:49.842Z,19.7
2022-11-05T01:15:52.039Z,19.8
2022-11-05T01:16:54.513Z,19.9
2022-11-05T01:17:56.736Z,20.1
2022-11-05T01:18:59.199Z,20.1
2022-11-05T01:20:01.401Z,20.1
2022-11-05T01:21:03.330Z,20.2
2022-11-05T01:22:05.641Z,20.2
2022-11-05T01:24:13.174Z,19.8
2022-11-05T01:25:15.096Z,20.3
2022-11-05T01:26:17.284Z,19.9
2022-11-05T01:27:19.753Z,20.2
2022-11-05T01:28:22.066Z,20
2022-11-05T01:29:24.478Z,20
2022-11-05T01:30:26.406Z,20.3
2022-11-05T01:31:28.878Z,20.2
2022-11-05T01:32:31.081Z,20.2
2022-11-05T01:33:33.570Z,20.1
2022-11-05T01:34:36.043Z,20
2022-11-05T01:35:38.243Z,20.2
2022-11-05T01:36:40.766Z,20.1
2022-11-05T01:37:43.269Z,20
2022-11-05T01:38:45.515Z,20.1
2022-11-05T01:39:48.001Z,20.2
2022-11-05T01:40:50.476Z,20.2
2022-11-05T01:41:52.950Z,20.1
2022-11-05T01:42:55.142Z,20
2022-11-05T01:43:57.348Z,20.1
2022-11-05T01:44:59.814Z,20.2
2022-11-05T01:46:01.459Z,20.1
2022-11-05T01:47:03.937Z,20.1
2022-11-05T01:48:06.132Z,20.1
2022-11-05T01:49:09.056Z,20
2022-11-05T01:50:11.534Z,20.1
2022-11-05T01:51:13.999Z,20
2022-11-05T01:52:16.484Z,20.1
2022-11-05T01:53:18.433Z,20
2022-11-05T01:54:20.697Z,20.1
2022-11-05T01:55:22.940Z,20.1
2022-11-05T01:56:25.420Z,20.1
2022-11-05T01:57:27.588Z,20.1
2022-11-05T01:58:29.519Z,19.9
2022-11-05T01:59:31.994Z,20.1
2022-11-05T02:00:34.479Z,20
2022-11-05T02:01:37.144Z,20
2022-11-05T02:02:40.172Z,20.2
2022-11-05T02:03:42.742Z,20.2
2022-11-05T02:04:45.211Z,20.3
2022-11-05T02:05:47.113Z,20.1
2022-11-05T02:06:49.311Z,20.1
2022-11-05T02:07:51.817Z,20.2
2022-11-05T02:08:54.310Z,20
2022-11-05T02:09:56.824Z,20.3
2022-11-05T02:10:59.026Z,20.2
2022-11-05T02:12:01.221Z,20.4
2022-11-05T02:13:03.729Z,20.3
2022-11-05T02:14:05.637Z,20.2
2022-11-05T02:15:08.134Z,20.2
2022-11-05T02:16:10.026Z,20.2
2022-11-05T02:17:12.496Z,20.1
2022-11-05T02:18:14.974Z,20.2
2022-11-05T02:19:17.451Z,20.1
2022-11-05T02:20:19.923Z,20.2
2022-11-05T02:21:22.384Z,20
2022-11-05T02:22:24.862Z,20.2
2022-11-05T02:23:27.350Z,20.2
2022-11-05T02:24:29.563Z,20.1
2022-11-05T02:25:32.226Z,20
2022-11-05T02:26:34.407Z,20.2
2022-11-05T02:27:36.610Z,20.2
2022-11-05T02:28:38.819Z,20
2022-11-05T02:29:40.745Z,20.2
2022-11-05T02:30:42.946Z,20.1
2022-11-05T02:31:45.157Z,20.1
2022-11-05T02:32:47.631Z,20.2
2022-11-05T02:33:49.851Z,20.2
2022-11-05T02:34:51.772Z,19.9
2022-11-05T02:35:54.237Z,20.3
2022-11-05T02:36:56.441Z,20.2
2022-11-05T02:37:58.631Z,20.3
2022-11-05T02:39:01.115Z,20.1
2022-11-05T02:40:03.897Z,20.1
2022-11-05T02:41:06.550Z,20
2022-11-05T02:42:09.016Z,20.3
2022-11-05T02:43:11.471Z,20.1
2022-11-05T02:44:14.925Z,20.3
2022-11-05T02:45:17.411Z,20.1
2022-11-05T02:46:19.040Z,20.2
2022-11-05T02:47:21.503Z,20.1
2022-11-05T02:48:23.966Z,20.2
2022-11-05T02:49:26.170Z,20
2022-11-05T02:50:28.645Z,20.1
2022-11-05T02:51:30.000Z,20.2
2022-11-05T02:52:32.477Z,20.2
2022-11-05T02:53:34.949Z,20.2
2022-11-05T02:54:37.140Z,20.2
2022-11-05T02:55:39.100Z,20.2
2022-11-05T02:56:41.616Z,20.2
2022-11-05T02:57:43.817Z,20.2
2022-11-05T02:58:45.175Z,20.1
2022-11-05T02:59:47.647Z,20.2
2022-11-05T03:00:50.119Z,20.3
2022-11-05T03:01:52.986Z,20.3
2022-11-05T03:02:55.572Z,20.1
2022-11-05T03:03:58.078Z,20.1
2022-11-05T03:05:00.545Z,20.2
2022-11-05T03:06:02.495Z,20.3
2022-11-05T03:07:05.097Z,20.1
2022-11-05T03:08:07.014Z,20.2
2022-11-05T03:09:09.478Z,20.3
2022-11-05T03:10:11.684Z,20.1
2022-11-05T03:11:13.616Z,20.3
2022-11-05T03:12:15.864Z,20.1
2022-11-05T03:13:18.360Z,20.3
2022-11-05T03:14:20.851Z,20.3
2022-11-05T03:15:23.051Z,20.3
2022-11-05T03:16:25.223Z,20.2
2022-11-05T03:17:27.408Z,20.2
2022-11-05T03:18:29.585Z,20.3
2022-11-05T03:19:31.849Z,20.3
2022-11-05T03:20:34.319Z,20.2
2022-11-05T03:21:36.802Z,20.2
2022-11-05T03:22:39.267Z,20.3
2022-11-05T03:23:41.748Z,20.2
2022-11-05T03:24:44.222Z,20.3
2022-11-05T03:25:46.800Z,20.1
2022-11-05T03:26:49.023Z,20.2
2022-11-05T03:27:51.662Z,20.3
2022-11-05T03:28:54.144Z,20.1
2022-11-05T03:29:56.613Z,20.3
2022-11-05T03:30:58.797Z,20.3
2022-11-05T03:32:00.738Z,20.3
2022-11-05T03:33:02.985Z,20.3
2022-11-05T03:34:04.905Z,20.1
2022-11-05T03:35:07.372Z,20.4
2022-11-05T03:36:09.572Z,20.3
2022-11-05T03:37:11.474Z,20.2
2022-11-05T03:38:13.650Z,20.4
2022-11-05T03:39:16.114Z,20.3
2022-11-05T03:40:18.592Z,20.2
2022-11-05T03:41:21.079Z,20.2
2022-11-05T03:42:23.280Z,20.3
2022-11-05T03:43:25.897Z,20.3
2022-11-05T03:44:27.817Z,20.3
2022-11-05T03:45:30.018Z,20.2
2022-11-05T03:46:32.217Z,20.2
2022-11-05T03:47:34.415Z,20.1
2022-11-05T03:48:36.454Z,20.2
2022-11-05T03:49:38.628Z,20.2
2022-11-05T03:50:42.138Z,20.3
2022-11-05T03:51:44.327Z,20.3
2022-11-05T03:52:46.798Z,20.3
2022-11-05T03:53:49.287Z,20.2
2022-11-05T03:54:51.486Z,20.1
2022-11-05T03:55:53.950Z,20.3
2022-11-05T03:56:56.438Z,20.3
2022-11-05T03:57:58.925Z,20.2
2022-11-05T03:59:01.451Z,20.2
2022-11-05T04:00:03.366Z,20.2
2022-11-05T04:01:05.568Z,20.3
2022-11-05T04:02:08.364Z,20.2
2022-11-05T04:03:12.315Z,20.4
2022-11-05T04:04:15.456Z,20.3
2022-11-05T04:05:17.089Z,20.2
2022-11-05T04:06:19.312Z,20.3
2022-11-05T04:07:21.782Z,20
2022-11-05T04:08:23.711Z,20.2
2022-11-05T04:09:26.180Z,20.2
2022-11-05T04:10:28.647Z,20
2022-11-05T04:11:31.114Z,19.9
2022-11-05T04:12:33.619Z,20.1
2022-11-05T04:13:36.113Z,20
2022-11-05T04:14:38.640Z,20.2
2022-11-05T04:15:40.561Z,20.2
2022-11-05T04:16:42.762Z,20.2
2022-11-05T04:17:44.957Z,20.1
2022-11-05T04:18:47.151Z,20.1
2022-11-05T04:19:49.628Z,20.1
2022-11-05T04:20:52.118Z,20
2022-11-05T04:21:54.587Z,19.9
2022-11-05T04:22:56.790Z,20.1
2022-11-05T04:23:59.003Z,19.8
2022-11-05T04:25:01.199Z,20.1
2022-11-05T04:26:03.410Z,19.8
2022-11-05T04:27:05.901Z,19.8
2022-11-05T04:28:08.149Z,19.9
2022-11-05T04:29:10.092Z,20
2022-11-05T04:30:12.632Z,19.8
2022-11-05T04:31:14.522Z,20
2022-11-05T04:32:16.989Z,19.8
2022-11-05T04:33:19.197Z,20.1
2022-11-05T04:34:21.660Z,19.8
2022-11-05T04:35:23.929Z,20.1
2022-11-05T04:36:26.115Z,20
2022-11-05T04:37:28.051Z,19.7
2022-11-05T04:38:29.673Z,20
2022-11-05T04:39:32.153Z,19.8
2022-11-05T04:40:34.622Z,19.9
2022-11-05T04:41:37.093Z,19.8
2022-11-05T04:42:39.565Z,19.7
2022-11-05T04:43:41.792Z,19.8
2022-11-05T04:44:44.286Z,19.8
2022-11-05T04:45:46.815Z,19.9
2022-11-05T04:46:48.749Z,19.7
2022-11-05T04:47:51.221Z,20
2022-11-05T04:48:53.404Z,20
2022-11-05T04:49:56.600Z,19.7
2022-11-05T04:50:59.064Z,19.9
2022-11-05T04:52:01.272Z,19.6
2022-11-05T04:53:03.766Z,19.6
2022-11-05T04:54:05.994Z,20
2022-11-05T04:55:08.458Z,19.8
2022-11-05T04:56:10.663Z,20
2022-11-05T04:57:13.184Z,19.9
2022-11-05T04:58:15.397Z,19.8
2022-11-05T04:59:17.691Z,19.9
2022-11-05T05:00:20.203Z,19.8
2022-11-05T05:01:23.210Z,19.8
2022-11-05T05:02:26.129Z,19.9
2022-11-05T05:03:28.616Z,19.6
2022-11-05T05:04:31.078Z,19.9
2022-11-05T05:05:33.307Z,19.8
2022-11-05T05:06:35.774Z,20
2022-11-05T05:07:38.263Z,19.8
2022-11-05T05:08:40.193Z,19.8
2022-11-05T05:09:42.369Z,19.6
2022-11-05T05:10:44.835Z,20
2022-11-05T05:11:47.017Z,19.7
2022-11-05T05:12:49.204Z,19.6
2022-11-05T05:13:50.844Z,20
2022-11-05T05:14:53.049Z,19.8
2022-11-05T05:15:55.553Z,19.9
2022-11-05T05:16:58.082Z,19.7
2022-11-05T05:18:00.276Z,19.8
2022-11-05T05:19:03.402Z,19.6
2022-11-05T05:20:05.676Z,20
2022-11-05T05:21:08.149Z,19.8
2022-11-05T05:22:10.360Z,19.7
2022-11-05T05:23:13.690Z,19.7
2022-11-05T05:24:16.352Z,20
2022-11-05T05:25:17.974Z,19.8
2022-11-05T05:26:20.174Z,19.6
2022-11-05T05:27:22.344Z,19.6
2022-11-05T05:28:24.553Z,19.8
2022-11-05T05:29:27.018Z,19.7
2022-11-05T05:30:29.511Z,19.9
2022-11-05T05:31:31.426Z,19.7
2022-11-05T05:32:33.991Z,19.6
2022-11-05T05:33:36.454Z,19.7
2022-11-05T05:34:38.929Z,19.6
2022-11-05T05:35:41.109Z,20
2022-11-05T05:36:43.590Z,19.6
2022-11-05T05:37:46.060Z,19.5
2022-11-05T05:38:48.243Z,19.6
2022-11-05T05:39:50.709Z,19.7
2022-11-05T05:40:53.213Z,19.9
2022-11-05T05:41:55.707Z,19.6
2022-11-05T05:42:57.666Z,20
2022-11-05T05:44:00.131Z,19.6
2022-11-05T05:45:02.666Z,19.8
2022-11-05T05:46:04.606Z,19.7
2022-11-05T05:47:06.834Z,19.7
2022-11-05T05:48:09.370Z,19.8
2022-11-05T05:49:13.213Z,19.6
2022-11-05T05:50:15.702Z,19.8
2022-11-05T05:51:18.177Z,19.7
2022-11-05T05:52:19.844Z,19.8
2022-11-05T05:53:22.305Z,19.8
2022-11-05T05:55:29.759Z,19.8
2022-11-05T05:56:31.684Z,19.7
2022-11-05T05:57:33.329Z,19.7
2022-11-05T05:58:35.526Z,19.8
2022-11-05T05:59:37.996Z,19.8
2022-11-05T06:00:40.501Z,19.6
2022-11-05T06:01:42.390Z,19.7
2022-11-05T06:02:45.660Z,19.9
2022-11-05T06:03:48.879Z,19.7
2022-11-05T06:04:51.083Z,19.7
2022-11-05T06:05:53.548Z,19.9
2022-11-05T06:06:56.033Z,19.6
2022-11-05T06:07:58.490Z,19.8
2022-11-05T06:09:00.981Z,19.6
2022-11-05T06:10:03.456Z,19.8
2022-11-05T06:11:05.753Z,19.5
2022-11-05T06:12:08.304Z,19.6
2022-11-05T06:13:11.406Z,19.8
2022-11-05T06:14:14.968Z,19.7
2022-11-05T06:15:17.463Z,19.8
2022-11-05T06:16:19.639Z,19.7
2022-11-05T06:17:22.153Z,19.4
2022-11-05T06:18:24.187Z,19.6
2022-11-05T06:19:26.706Z,19.6
2022-11-05T06:20:28.900Z,19.7
2022-11-05T06:21:31.380Z,19.4
2022-11-05T06:22:33.278Z,19.8
2022-11-05T06:23:35.763Z,19.7
2022-11-05T06:24:37.399Z,19.5
2022-11-05T06:26:44.648Z,19.5
2022-11-05T06:27:46.868Z,19.6
2022-11-05T06:28:49.355Z,19.7
2022-11-05T06:29:51.829Z,19.6
2022-11-05T06:30:54.298Z,19.5
2022-11-05T06:31:56.497Z,19.4
2022-11-05T06:32:59.003Z,19.8
2022-11-05T06:34:01.228Z,19.6
2022-11-05T06:35:03.840Z,19.7
2022-11-05T06:36:06.026Z,19.7
2022-11-05T06:37:08.678Z,19.8
2022-11-05T06:38:10.349Z,19.8
2022-11-05T06:39:12.546Z,19.8
2022-11-05T06:40:14.745Z,19.7
2022-11-05T06:41:17.213Z,19.8
2022-11-05T06:42:20.058Z,19.8
2022-11-05T06:43:22.292Z,19.7
2022-11-05T06:44:24.763Z,19.6
2022-11-05T06:45:26.996Z,19.8
2022-11-05T06:46:29.208Z,19.5
2022-11-05T06:47:31.749Z,19.7
2022-11-05T06:48:34.272Z,19.5
2022-11-05T06:49:36.492Z,19.8
2022-11-05T06:50:39.113Z,19.7
2022-11-05T06:51:41.319Z,19.7
2022-11-05T06:52:43.861Z,19.5
2022-11-05T06:53:46.033Z,19.5
2022-11-05T06:54:48.510Z,19.6
2022-11-05T06:55:50.712Z,19.5
2022-11-05T06:56:52.615Z,19.6
2022-11-05T06:57:54.567Z,19.7
2022-11-05T06:58:56.777Z,19.6
2022-11-05T07:01:04.441Z,19.8
2022-11-05T07:02:07.336Z,19.6
2022-11-05T07:03:10.333Z,19.5
2022-11-05T07:04:14.948Z,19.6
2022-11-05T07:05:17.442Z,19.7
2022-11-05T07:06:19.979Z,19.5
2022-11-05T07:07:22.450Z,19.5
2022-11-05T07:08:24.926Z,19.7
2022-11-05T07:09:26.829Z,19.4
2022-11-05T07:10:29.561Z,19.7
2022-11-05T07:11:31.754Z,19.6
2022-11-05T07:12:33.938Z,19.5
2022-11-05T07:13:35.881Z,19.7
2022-11-05T07:14:38.077Z,19.5
2022-11-05T07:15:40.270Z,19.5
2022-11-05T07:16:42.493Z,19.7
2022-11-05T07:17:44.757Z,19.8
2022-11-05T07:18:46.963Z,19.8
2022-11-05T07:19:49.453Z,19.4
2022-11-05T07:20:51.678Z,19.7
2022-11-05T07:21:54.227Z,19.4
2022-11-05T07:22:56.699Z,19.7
2022-11-05T07:23:58.625Z,19.8
2022-11-05T07:25:01.132Z,19.4
2022-11-05T07:26:03.626Z,19.8
2022-11-05T07:27:05.283Z,19.8
2022-11-05T07:28:07.755Z,19.6
2022-11-05T07:29:10.245Z,19.4
2022-11-05T07:30:12.721Z,19.5
2022-11-05T07:31:14.961Z,19.5
2022-11-05T07:32:17.161Z,19.5
2022-11-05T07:33:19.066Z,19.7
2022-11-05T07:34:21.565Z,19.6
2022-11-05T07:35:24.059Z,19.5
2022-11-05T07:36:26.006Z,19.5
2022-11-05T07:37:28.536Z,19.4
2022-11-05T07:38:30.468Z,19.5
2022-11-05T07:39:32.373Z,19.4
2022-11-05T07:40:34.312Z,19.5
2022-11-05T07:41:36.787Z,19.5
2022-11-05T07:42:38.980Z,19.8
2022-11-05T07:43:41.454Z,19.6
2022-11-05T07:44:43.624Z,19.7
2022-11-05T07:45:45.543Z,19.7
2022-11-05T07:46:47.445Z,19.7
2022-11-05T07:47:49.930Z,19.6
2022-11-05T07:48:52.399Z,19.8
2022-11-05T07:49:54.869Z,19.8
2022-11-05T07:50:57.348Z,19.7
2022-11-05T07:51:59.848Z,19.7
2022-11-05T07:53:02.678Z,19.6
2022-11-05T07:54:04.884Z,19.5
2022-11-05T07:55:07.102Z,19.8
2022-11-05T07:56:09.025Z,19.6
2022-11-05T07:57:11.511Z,19.5
2022-11-05T07:58:13.976Z,19.6
2022-11-05T07:59:16.459Z,19.8
2022-11-05T08:00:18.930Z,19.5
2022-11-05T08:01:21.455Z,19.7
2022-11-05T08:02:25.033Z,19.6
2022-11-05T08:03:28.365Z,19.5
2022-11-05T08:04:31.057Z,19.8
2022-11-05T08:05:33.535Z,19.7
2022-11-05T08:06:35.478Z,19.4
2022-11-05T08:07:38.073Z,19.5
2022-11-05T08:08:40.603Z,19.6
2022-11-05T08:09:43.077Z,19.5
2022-11-05T08:10:45.554Z,19.5
2022-11-05T08:11:47.758Z,19.6
2022-11-05T08:12:53.722Z,19.6
2022-11-05T08:13:55.929Z,19.6
2022-11-05T08:14:58.139Z,19.3
2022-11-05T08:16:00.182Z,19.5
2022-11-05T08:17:02.079Z,19.7
2022-11-05T08:18:04.567Z,19.5
2022-11-05T08:19:06.771Z,19.4
2022-11-05T08:20:08.679Z,19.6
2022-11-05T08:21:11.144Z,19.6
2022-11-05T08:22:13.538Z,19.6
2022-11-05T08:23:15.934Z,19.4
2022-11-05T08:24:18.858Z,19.5
2022-11-05T08:25:20.503Z,19.3
2022-11-05T08:26:23.000Z,19.7
2022-11-05T08:27:24.660Z,19.4
2022-11-05T08:28:27.164Z,19.7
2022-11-05T08:29:29.092Z,19.5
2022-11-05T08:30:31.292Z,19.6
2022-11-05T08:31:33.496Z,19.6
2022-11-05T08:32:35.711Z,19.6
2022-11-05T08:33:38.191Z,19.6
2022-11-05T08:34:40.681Z,19.4
2022-11-05T08:35:42.892Z,19.7
2022-11-05T08:36:45.366Z,19.8
2022-11-05T08:37:47.902Z,19.5
2022-11-05T08:38:50.129Z,19.5
2022-11-05T08:39:52.761Z,19.5
2022-11-05T08:40:55.247Z,19.8
2022-11-05T08:41:57.443Z,19.5
2022-11-05T08:42:59.938Z,19.4
2022-11-05T08:44:02.404Z,19.6
2022-11-05T08:45:04.605Z,19.7
2022-11-05T08:46:06.812Z,19.5
2022-11-05T08:47:09.012Z,19.7
2022-11-05T08:48:10.639Z,19.6
2022-11-05T08:49:13.113Z,19.5
2022-11-05T08:50:15.596Z,19.8
2022-11-05T08:51:17.223Z,19.5
2022-11-05T08:52:18.871Z,19.8
2022-11-05T08:53:21.387Z,19.7
2022-11-05T08:54:23.614Z,19.3
2022-11-05T08:55:26.172Z,19.4
2022-11-05T08:56:28.372Z,19.8
2022-11-05T08:57:30.290Z,19.5
2022-11-05T08:58:32.500Z,19.4
2022-11-05T08:59:34.794Z,19.6
2022-11-05T09:00:36.999Z,19.5
2022-11-05T09:01:39.543Z,19.8
2022-11-05T09:02:42.516Z,19.8
2022-11-05T09:03:45.377Z,19.5
2022-11-05T09:04:47.844Z,19.5
2022-11-05T09:05:50.316Z,19.4
2022-11-05T09:06:52.240Z,19.3
2022-11-05T09:08:59.423Z,19.6
2022-11-05T09:10:01.656Z,19.3
2022-11-05T09:11:04.310Z,19.4
2022-11-05T09:14:16.230Z,19.5
2022-11-05T09:15:18.422Z,19.6
2022-11-05T09:16:20.597Z,19.5
2022-11-05T09:17:22.530Z,19.7
2022-11-05T09:18:24.735Z,19.7
2022-11-05T09:19:27.218Z,19.6
2022-11-05T09:20:29.686Z,19.5
2022-11-05T09:21:31.862Z,19.6
2022-11-05T09:22:35.978Z,19.4
2022-11-05T09:23:39.550Z,19.5
2022-11-05T09:24:41.780Z,19.6
2022-11-05T09:25:43.290Z,19.4
2022-11-05T09:26:45.853Z,19.5
2022-11-05T09:27:48.043Z,19.6
2022-11-05T09:28:50.531Z,19.5
2022-11-05T09:29:52.704Z,19.5
2022-11-05T09:30:54.909Z,19.4
2022-11-05T09:31:56.863Z,19.4
2022-11-05T09:32:59.079Z,19.3
2022-11-05T09:34:01.268Z,19.5
2022-11-05T09:35:03.774Z,19.6
2022-11-05T09:36:05.672Z,19.4
2022-11-05T09:37:08.150Z,19.5
2022-11-05T09:38:09.791Z,19.5
2022-11-05T09:39:11.996Z,19.4
2022-11-05T09:40:13.960Z,19.6
2022-11-05T09:41:16.486Z,19.5
2022-11-05T09:42:19.033Z,19.3
2022-11-05T09:43:21.244Z,19.5
2022-11-05T09:44:27.417Z,19.4
2022-11-05T09:45:29.891Z,19.6
2022-11-05T09:46:32.089Z,19.6
2022-11-05T09:47:34.581Z,19.5
2022-11-05T09:48:37.055Z,19.7
2022-11-05T09:49:39.271Z,19.5
2022-11-05T09:50:41.741Z,19.3
2022-11-05T09:51:44.221Z,19.4
2022-11-05T09:52:46.412Z,19.3
2022-11-05T09:53:48.608Z,19.7
2022-11-05T09:54:50.822Z,19.4
2022-11-05T09:55:53.099Z,19.6
2022-11-05T09:56:55.050Z,19.6
2022-11-05T09:57:57.615Z,19.6
2022-11-05T09:58:59.533Z,19.4
2022-11-05T10:00:01.778Z,19.4
2022-11-05T10:01:03.825Z,19.6
2022-11-05T10:02:06.295Z,19.4
2022-11-05T10:03:10.326Z,19.4
2022-11-05T10:04:14.264Z,19.6
2022-11-05T10:05:16.626Z,19.6
2022-11-05T10:06:19.138Z,19.4
2022-11-05T10:07:21.616Z,19.5
2022-11-05T10:08:23.527Z,19.5
2022-11-05T10:09:25.479Z,19.6
2022-11-05T10:10:27.723Z,19.5
2022-11-05T10:11:29.940Z,19.5
2022-11-05T10:12:32.201Z,19.5
2022-11-05T10:13:34.845Z,19.6
2022-11-05T10:14:37.050Z,19.4
2022-11-05T10:15:39.007Z,19.4
2022-11-05T10:16:40.944Z,19.5
2022-11-05T10:17:43.436Z,19.5
2022-11-05T10:18:45.918Z,19.7
2022-11-05T10:19:48.400Z,19.4
2022-11-05T10:20:50.620Z,19.3
2022-11-05T10:22:58.090Z,19.4
2022-11-05T10:24:00.017Z,19.4
2022-11-05T10:25:02.491Z,19.4
2022-11-05T10:26:04.174Z,19.5
2022-11-05T10:27:06.412Z,19.4
2022-11-05T10:28:08.651Z,19.5
2022-11-05T10:29:11.092Z,19.6
2022-11-05T10:30:12.999Z,19.4
2022-11-05T10:31:14.643Z,19.5
2022-11-05T10:32:17.132Z,19.5
2022-11-05T10:33:18.765Z,19.3
2022-11-05T10:34:20.954Z,19.3
2022-11-05T10:35:23.187Z,19.5
2022-11-05T10:36:25.404Z,19.4
2022-11-05T10:37:27.048Z,19.3
2022-11-05T10:38:28.992Z,19.6
2022-11-05T10:39:31.215Z,19.5
2022-11-05T10:40:33.140Z,19.6
2022-11-05T10:41:35.644Z,19.5
2022-11-05T10:42:37.612Z,19.5
2022-11-05T10:43:40.202Z,19.6
2022-11-05T10:44:42.838Z,19.3
2022-11-05T10:45:45.037Z,19.5
2022-11-05T10:46:46.958Z,19.3
2022-11-05T10:47:49.433Z,19.5
2022-11-05T10:48:51.914Z,19.3
2022-11-05T10:49:54.117Z,19.5
2022-11-05T10:50:56.324Z,19.3
2022-11-05T10:51:58.537Z,19.4
2022-11-05T10:53:01.023Z,19.6
2022-11-05T10:54:03.498Z,19.6
2022-11-05T10:55:05.977Z,19.2
2022-11-05T10:56:08.468Z,19.3
2022-11-05T10:57:10.945Z,19.5
2022-11-05T10:58:13.168Z,19.5
2022-11-05T10:59:15.458Z,19.4
2022-11-05T11:00:18.100Z,19.5
2022-11-05T11:01:21.281Z,19.4
2022-11-05T11:02:24.105Z,19.4
2022-11-05T11:03:26.666Z,19.5
2022-11-05T11:05:33.308Z,19.5
2022-11-05T11:06:35.510Z,19.7
2022-11-05T11:07:37.718Z,19.5
2022-11-05T11:08:39.936Z,19.5
2022-11-05T11:09:41.567Z,19.3
2022-11-05T11:10:43.761Z,19.4
2022-11-05T11:11:46.236Z,19.3
2022-11-05T11:12:48.457Z,19.4
2022-11-05T11:13:50.964Z,19.6
2022-11-05T11:14:53.571Z,19.6
2022-11-05T11:15:56.208Z,19.4
2022-11-05T11:16:58.432Z,19.6
2022-11-05T11:18:00.637Z,19.4
2022-11-05T11:19:02.279Z,19.4
2022-11-05T11:20:04.488Z,19.2
2022-11-05T11:21:06.707Z,19.4
2022-11-05T11:22:08.609Z,19.4
2022-11-05T11:23:11.458Z,19.3
2022-11-05T11:24:15.844Z,19.3
2022-11-05T11:25:18.329Z,19.6
2022-11-05T11:26:20.820Z,19.3
2022-11-05T11:27:23.033Z,19.5
2022-11-05T11:28:25.520Z,19.4
2022-11-05T11:29:28.097Z,19.5
2022-11-05T11:30:30.133Z,19.5
2022-11-05T11:31:32.731Z,19.5
2022-11-05T11:32:35.252Z,19.5
2022-11-05T11:33:37.214Z,19.5
2022-11-05T11:34:38.885Z,19.5
2022-11-05T11:35:40.833Z,19.3
2022-11-05T11:36:43.034Z,19.4
2022-11-05T11:37:44.967Z,19.3
2022-11-05T11:38:46.618Z,19.3
2022-11-05T11:39:49.097Z,19.3
2022-11-05T11:40:51.297Z,19.5
2022-11-05T11:41:53.250Z,19.5
2022-11-05T11:42:55.729Z,19.6
2022-11-05T11:43:58.210Z,19.5
2022-11-05T11:45:00.615Z,19.6
2022-11-05T11:47:07.832Z,19.2
2022-11-05T11:48:10.389Z,19.5
2022-11-05T11:49:12.601Z,19.5
2022-11-05T11:50:14.863Z,19.4
2022-11-05T11:51:17.343Z,19.5
2022-11-05T11:52:19.541Z,19.7
2022-11-05T11:53:21.753Z,19.3
2022-11-05T11:55:28.968Z,19.6
2022-11-05T11:56:31.180Z,19.5
2022-11-05T11:57:33.378Z,19.3
2022-11-05T11:58:35.022Z,19.6
2022-11-05T12:00:42.302Z,19.4
2022-11-05T12:01:44.377Z,19.4
2022-11-05T12:02:46.992Z,19.5
2022-11-05T12:03:49.777Z,19.5
2022-11-05T12:04:51.665Z,19.7
2022-11-05T12:05:54.164Z,19.5
2022-11-05T12:06:56.647Z,19.3
2022-11-05T12:07:59.131Z,19.4
2022-11-05T12:10:05.492Z,19.5
2022-11-05T12:11:07.437Z,19.5
2022-11-05T12:12:09.634Z,19.7
2022-11-05T12:13:12.265Z,19.6
2022-11-05T12:14:15.767Z,19.5
2022-11-05T12:15:17.971Z,19.7
2022-11-05T12:16:20.493Z,19.5
2022-11-05T12:17:22.980Z,19.2
2022-11-05T12:18:25.199Z,19.4
2022-11-05T12:19:27.877Z,19.5
2022-11-05T12:20:30.075Z,19.4
2022-11-05T12:22:37.549Z,19.4
2022-11-05T12:23:40.039Z,19.4
2022-11-05T12:24:42.253Z,19.4
2022-11-05T12:25:44.475Z,19.4
2022-11-05T12:26:46.666Z,19.4
2022-11-05T12:27:48.872Z,19.4
2022-11-05T12:29:55.239Z,19.4
2022-11-05T12:30:57.448Z,19.4
2022-11-05T12:31:59.943Z,19.3
2022-11-05T12:33:02.624Z,19.5
2022-11-05T12:34:05.858Z,19.4
2022-11-05T12:35:08.395Z,19.4
2022-11-05T12:36:10.863Z,19.4
2022-11-05T12:37:12.528Z,19.4
2022-11-05T12:38:14.768Z,19.3
2022-11-05T12:39:16.994Z,19.4
2022-11-05T12:40:18.931Z,19.6
2022-11-05T12:41:21.414Z,19.5
2022-11-05T12:42:23.059Z,19.5
2022-11-05T12:43:25.272Z,19.4
2022-11-05T12:44:27.175Z,19.7
2022-11-05T12:45:29.660Z,19.4
2022-11-05T12:46:31.310Z,19.4
2022-11-05T12:47:33.823Z,19.3
2022-11-05T12:48:37.908Z,19.4
2022-11-05T12:49:39.885Z,19.2
2022-11-05T12:50:42.407Z,19.6
2022-11-05T12:51:44.614Z,19.3
2022-11-05T12:52:46.545Z,19.2
2022-11-05T12:53:48.763Z,19.5
2022-11-05T12:54:50.969Z,19.4
2022-11-05T12:55:52.878Z,19.5
2022-11-05T12:56:55.080Z,19.2
2022-11-05T12:57:57.285Z,19.4
2022-11-05T12:58:59.481Z,19.3
2022-11-05T13:00:01.688Z,19.4
2022-11-05T13:01:03.858Z,19.3
2022-11-05T13:02:06.547Z,19.5
2022-11-05T13:03:09.836Z,19.2
2022-11-05T13:04:13.078Z,19.4
2022-11-05T13:05:15.704Z,19.4
2022-11-05T13:06:18.508Z,19.4
2022-11-05T13:07:20.167Z,19.3
2022-11-05T13:08:22.382Z,19.5
2022-11-05T13:09:24.876Z,19.4
2022-11-05T13:10:26.799Z,19.3
2022-11-05T13:11:28.976Z,19.4
2022-11-05T13:12:31.454Z,19.4
2022-11-05T13:13:33.381Z,19.4
2022-11-05T13:14:35.860Z,19.2
2022-11-05T13:15:38.344Z,19.3
2022-11-05T13:16:40.891Z,19.2
2022-11-05T13:17:43.661Z,19.4
2022-11-05T13:18:46.203Z,19.3
2022-11-05T13:19:48.417Z,19.6
2022-11-05T13:20:50.688Z,19.4
2022-11-05T13:21:53.383Z,19.4
2022-11-05T13:22:55.320Z,19.4
2022-11-05T13:23:57.798Z,19.5
2022-11-05T13:24:59.988Z,19.5
2022-11-05T13:26:01.932Z,19.4
2022-11-05T13:27:04.135Z,19.6
2022-11-05T13:28:06.354Z,19.5
2022-11-05T13:29:08.542Z,19.5
2022-11-05T13:30:10.754Z,19.3
2022-11-05T13:31:13.226Z,19.4
2022-11-05T13:32:15.738Z,19.4
2022-11-05T13:33:18.212Z,19.4
2022-11-05T13:34:20.722Z,19.5
2022-11-05T13:35:22.948Z,19.4
2022-11-05T13:36:25.172Z,19.4
2022-11-05T13:37:27.690Z,19.3
2022-11-05T13:38:29.633Z,19.5
2022-11-05T13:39:32.109Z,19.4
2022-11-05T13:40:34.312Z,19.4
2022-11-05T13:41:36.780Z,19.4
2022-11-05T13:42:38.983Z,19.4
2022-11-05T13:43:41.210Z,19.5
2022-11-05T13:44:43.388Z,19.4
2022-11-05T13:45:45.582Z,19.5
2022-11-05T13:46:48.065Z,19.5
2022-11-05T13:47:50.544Z,19.5
2022-11-05T13:48:52.753Z,19.6
2022-11-05T13:49:54.983Z,19.5
2022-11-05T13:50:57.199Z,19.4
2022-11-05T13:51:59.513Z,19.3
2022-11-05T13:53:01.785Z,19.4
2022-11-05T13:54:04.264Z,19.3
2022-11-05T13:55:07.018Z,19.4
2022-11-05T13:56:08.638Z,19.3
2022-11-05T13:57:10.572Z,19.4
2022-11-05T13:58:12.204Z,19.2
2022-11-05T13:59:14.678Z,19.4
2022-11-05T14:00:17.163Z,19.4
2022-11-05T14:01:19.444Z,19.3
2022-11-05T14:02:22.492Z,19.4
2022-11-05T14:03:25.161Z,19.3
2022-11-05T14:04:27.094Z,19.3
2022-11-05T14:05:29.104Z,19.4
2022-11-05T14:06:31.040Z,19.4
2022-11-05T14:07:33.280Z,19.4
2022-11-05T14:08:35.539Z,19.5
2022-11-05T14:09:37.760Z,19.3